Time;durP1;ratioP1;P1;durP2;ratioP2;P2;SDS_P1;SDS_P2;PMS_P1;PMS_P2;Temp;Humidity;BMP_temperature;BMP_pressure;BME280_temperature;BME280_humidity;BME280_pressure;Samples;Min_cycle;Max_cycle;Signal;HPM_P1;HPM_P2
2021/04/25 00:03:07;;;;;;;9.7;8.4;;;;;;;6.5;50.6;102550;;;;
2021/04/25 00:07:07;;;;;;;12.4;7.7;;;;;;;6.4;51.6;102560;;;;
2021/04/25 00:09:07;;;;;;;12.4;7.7;;;;;;;6.3;51.6;102560;;;;
2021/04/25 00:13:07;;;;;;;12.4;7.7;;;;;;;6.2;51.9;102560;;;;
2021/04/25 00:15:07;;;;;;;12.4;7.7;;;;;;;6.3;51.7;102560;;;;
2021/04/25 00:17:07;;;;;;;12.4;7.7;;;;;;;6.2;51.6;102560;;;;
2021/04/25 00:19:07;;;;;;;12.4;7.7;;;;;;;6.1;52.4;102560;;;;
2021/04/25 00:27:07;;;;;;;10.0;8.0;;;;;;;6.2;51.9;102540;;;;
2021/04/25 00:31:07;;;;;;;10.0;8.0;;;;;;;6.1;52.6;102550;;;;
2021/04/25 00:33:07;;;;;;;10.0;8.0;;;;;;;5.9;53.5;102550;;;;
2021/04/25 00:37:07;;;;;;;10.0;8.0;;;;;;;6.0;52.3;102550;;;;
2021/04/25 00:41:07;;;;;;;10.0;8.0;;;;;;;5.9;52.1;102550;;;;
2021/04/25 00:43:07;;;;;;;10.0;8.0;;;;;;;6.0;51.9;102550;;;;
2021/04/25 00:47:07;;;;;;;11.0;8.6;;;;;;;6.1;51.5;102550;;;;
2021/04/25 00:49:07;;;;;;;11.0;8.6;;;;;;;5.9;52.5;102540;;;;
2021/04/25 00:55:07;;;;;;;11.0;8.6;;;;;;;5.8;53.8;102550;;;;
2021/04/25 01:03:07;;;;;;;11.0;8.6;;;;;;;5.7;53.4;102560;;;;
2021/04/25 01:09:07;;;;;;;10.2;8.7;;;;;;;5.6;52.1;102560;;;;
2021/04/25 01:19:07;;;;;;;10.2;8.7;;;;;;;5.5;53.8;102560;;;;
2021/04/25 01:21:07;;;;;;;10.2;8.7;;;;;;;5.6;52.6;102560;;;;
2021/04/25 01:23:07;;;;;;;10.2;8.7;;;;;;;5.5;53.6;102560;;;;
2021/04/25 01:27:07;;;;;;;11.9;9.2;;;;;;;5.4;53.8;102550;;;;
2021/04/25 01:29:07;;;;;;;11.9;9.2;;;;;;;5.5;53.1;102550;;;;
2021/04/25 01:33:07;;;;;;;11.9;9.2;;;;;;;5.4;53.5;102550;;;;
2021/04/25 01:35:07;;;;;;;11.9;9.2;;;;;;;5.5;53.4;102550;;;;
2021/04/25 01:37:07;;;;;;;11.9;9.2;;;;;;;5.4;54.8;102560;;;;
2021/04/25 01:39:07;;;;;;;11.9;9.2;;;;;;;5.3;55.5;102560;;;;
2021/04/25 01:41:07;;;;;;;11.9;9.2;;;;;;;5.4;54.5;102560;;;;
2021/04/25 01:45:07;;;;;;;11.9;9.2;;;;;;;5.3;55.4;102560;;;;
2021/04/25 01:47:07;;;;;;;11.1;9.0;;;;;;;5.5;54.0;102550;;;;
2021/04/25 01:49:07;;;;;;;11.1;9.0;;;;;;;5.4;53.8;102560;;;;
2021/04/25 01:51:07;;;;;;;11.1;9.0;;;;;;;5.6;53.4;102550;;;;
2021/04/25 01:53:07;;;;;;;11.1;9.0;;;;;;;5.4;54.6;102550;;;;
2021/04/25 01:55:07;;;;;;;11.1;9.0;;;;;;;5.5;53.3;102550;;;;
2021/04/25 01:57:07;;;;;;;11.1;9.0;;;;;;;5.6;53.2;102550;;;;
2021/04/25 02:01:07;;;;;;;11.1;9.0;;;;;;;5.5;53.6;102540;;;;
2021/04/25 02:05:07;;;;;;;11.1;9.0;;;;;;;5.4;53.4;102540;;;;
2021/04/25 02:07:07;;;;;;;11.0;8.7;;;;;;;5.5;52.6;102550;;;;
2021/04/25 02:09:07;;;;;;;11.0;8.7;;;;;;;5.4;53.5;102550;;;;
2021/04/25 02:11:07;;;;;;;11.0;8.7;;;;;;;5.3;53.5;102550;;;;
2021/04/25 02:13:07;;;;;;;11.0;8.7;;;;;;;5.2;53.1;102550;;;;
2021/04/25 02:15:07;;;;;;;11.0;8.7;;;;;;;5.3;52.9;102550;;;;
2021/04/25 02:25:07;;;;;;;11.0;8.7;;;;;;;5.2;53.6;102550;;;;
2021/04/25 02:29:07;;;;;;;11.7;9.1;;;;;;;5.1;53.2;102550;;;;
2021/04/25 02:37:07;;;;;;;11.7;9.1;;;;;;;5.0;53.9;102550;;;;
2021/04/25 02:43:07;;;;;;;11.7;9.1;;;;;;;4.9;54.6;102550;;;;
2021/04/25 02:49:07;;;;;;;12.6;9.3;;;;;;;5.0;53.9;102550;;;;
2021/04/25 02:51:07;;;;;;;12.6;9.3;;;;;;;4.8;54.6;102550;;;;
2021/04/25 02:53:08;;;;;;;12.6;9.3;;;;;;;4.9;54.6;102550;;;;
2021/04/25 02:55:07;;;;;;;12.6;9.3;;;;;;;4.8;54.3;102550;;;;
2021/04/25 03:01:07;;;;;;;12.6;9.3;;;;;;;4.7;56.8;102550;;;;
2021/04/25 03:03:07;;;;;;;12.6;9.3;;;;;;;4.8;56.0;102550;;;;
2021/04/25 03:05:07;;;;;;;12.6;9.3;;;;;;;4.7;55.1;102540;;;;
2021/04/25 03:07:07;;;;;;;11.7;8.2;;;;;;;4.8;54.4;102540;;;;
2021/04/25 03:11:07;;;;;;;11.7;8.2;;;;;;;4.9;54.9;102540;;;;
2021/04/25 03:13:07;;;;;;;11.7;8.2;;;;;;;4.8;55.5;102550;;;;
2021/04/25 03:15:07;;;;;;;11.7;8.2;;;;;;;4.7;55.4;102550;;;;
2021/04/25 03:21:07;;;;;;;11.7;8.2;;;;;;;4.6;57.1;102550;;;;
2021/04/25 03:23:07;;;;;;;11.7;8.2;;;;;;;4.7;56.6;102550;;;;
2021/04/25 03:29:07;;;;;;;8.9;7.7;;;;;;;4.8;55.9;102550;;;;
2021/04/25 03:41:07;;;;;;;8.9;7.7;;;;;;;4.7;56.2;102550;;;;
2021/04/25 03:45:07;;;;;;;8.9;7.7;;;;;;;4.8;55.5;102540;;;;
2021/04/25 03:47:07;;;;;;;8.0;6.4;;;;;;;4.6;55.7;102550;;;;
2021/04/25 03:49:07;;;;;;;8.0;6.4;;;;;;;4.7;55.3;102550;;;;
2021/04/25 03:57:07;;;;;;;8.0;6.4;;;;;;;4.6;55.6;102550;;;;
2021/04/25 03:59:07;;;;;;;8.0;6.4;;;;;;;4.5;55.1;102550;;;;
2021/04/25 04:01:07;;;;;;;8.0;6.4;;;;;;;4.6;55.1;102550;;;;
2021/04/25 04:03:07;;;;;;;8.0;6.4;;;;;;;4.8;54.4;102550;;;;
2021/04/25 04:05:07;;;;;;;8.0;6.4;;;;;;;4.6;54.6;102550;;;;
2021/04/25 04:07:07;;;;;;;9.5;7.0;;;;;;;4.5;55.2;102550;;;;
2021/04/25 04:09:07;;;;;;;9.5;7.0;;;;;;;4.6;54.3;102550;;;;
2021/04/25 04:15:07;;;;;;;9.5;7.0;;;;;;;4.5;54.4;102550;;;;
2021/04/25 04:19:07;;;;;;;9.5;7.0;;;;;;;4.4;54.3;102550;;;;
2021/04/25 04:25:07;;;;;;;9.5;7.0;;;;;;;4.5;54.4;102550;;;;
2021/04/25 04:31:07;;;;;;;8.7;6.0;;;;;;;4.3;55.2;102550;;;;
2021/04/25 04:39:07;;;;;;;8.7;6.0;;;;;;;4.5;55.0;102550;;;;
2021/04/25 04:41:07;;;;;;;8.7;6.0;;;;;;;4.6;54.7;102540;;;;
2021/04/25 04:45:07;;;;;;;7.9;5.7;;;;;;;4.8;54.1;102550;;;;
2021/04/25 04:47:07;;;;;;;7.9;5.7;;;;;;;4.6;55.0;102550;;;;
2021/04/25 04:49:07;;;;;;;7.9;5.7;;;;;;;4.8;54.5;102550;;;;
2021/04/25 04:51:07;;;;;;;7.9;5.7;;;;;;;4.7;54.7;102550;;;;
2021/04/25 04:55:07;;;;;;;7.9;5.7;;;;;;;4.8;54.3;102550;;;;
2021/04/25 04:57:07;;;;;;;7.9;5.7;;;;;;;4.9;53.9;102550;;;;
2021/04/25 04:59:07;;;;;;;7.9;5.7;;;;;;;5.0;53.7;102550;;;;
2021/04/25 05:01:07;;;;;;;7.9;5.7;;;;;;;4.9;54.1;102550;;;;
2021/04/25 05:05:07;;;;;;;7.9;5.3;;;;;;;5.0;54.3;102550;;;;
2021/04/25 05:09:07;;;;;;;7.9;5.3;;;;;;;5.1;54.0;102560;;;;
2021/04/25 05:17:07;;;;;;;7.9;5.3;;;;;;;5.2;53.7;102560;;;;
2021/04/25 05:19:07;;;;;;;7.9;5.3;;;;;;;5.3;53.3;102560;;;;
2021/04/25 05:21:07;;;;;;;7.9;5.3;;;;;;;5.4;53.0;102570;;;;
2021/04/25 05:25:07;;;;;;;7.9;5.5;;;;;;;5.5;52.9;102570;;;;
2021/04/25 05:27:07;;;;;;;7.9;5.5;;;;;;;5.4;53.1;102570;;;;
2021/04/25 05:35:07;;;;;;;7.9;5.5;;;;;;;5.5;52.9;102560;;;;
2021/04/25 05:39:07;;;;;;;7.9;5.5;;;;;;;5.4;52.9;102570;;;;
2021/04/25 05:45:07;;;;;;;8.6;5.3;;;;;;;5.6;52.6;102580;;;;
2021/04/25 05:47:07;;;;;;;8.6;5.3;;;;;;;5.7;52.4;102580;;;;
2021/04/25 05:49:07;;;;;;;8.6;5.3;;;;;;;5.4;53.1;102580;;;;
2021/04/25 05:51:07;;;;;;;8.6;5.3;;;;;;;5.5;53.1;102590;;;;
2021/04/25 05:55:07;;;;;;;8.6;5.3;;;;;;;5.6;52.7;102580;;;;
2021/04/25 05:57:08;;;;;;;8.6;5.3;;;;;;;5.7;52.5;102580;;;;
2021/04/25 05:59:07;;;;;;;8.6;5.3;;;;;;;5.9;52.2;102590;;;;
2021/04/25 06:01:07;;;;;;;8.6;5.3;;;;;;;5.8;52.4;102590;;;;
2021/04/25 06:09:07;;;;;;;9.7;5.6;;;;;;;5.9;52.0;102580;;;;
2021/04/25 06:13:07;;;;;;;9.7;5.6;;;;;;;5.8;52.2;102580;;;;
2021/04/25 06:15:07;;;;;;;9.7;5.6;;;;;;;5.7;52.6;102590;;;;
2021/04/25 06:19:07;;;;;;;9.7;5.6;;;;;;;5.8;52.3;102590;;;;
2021/04/25 06:21:07;;;;;;;9.7;5.6;;;;;;;5.9;51.9;102600;;;;
2021/04/25 06:23:07;;;;;;;9.7;5.6;;;;;;;5.8;51.9;102600;;;;
2021/04/25 06:25:12;;;;;;;6.8;4.3;;;;;;;5.9;51.6;102600;;;;
2021/04/25 06:27:07;;;;;;;6.8;4.3;;;;;;;6.0;51.2;102600;;;;
2021/04/25 06:29:07;;;;;;;6.8;4.3;;;;;;;5.9;51.0;102600;;;;
2021/04/25 06:31:07;;;;;;;6.8;4.3;;;;;;;6.0;50.9;102590;;;;
2021/04/25 06:35:07;;;;;;;6.8;4.3;;;;;;;6.1;50.7;102600;;;;
2021/04/25 06:39:07;;;;;;;6.8;4.3;;;;;;;6.0;50.9;102610;;;;
2021/04/25 06:43:07;;;;;;;6.8;4.3;;;;;;;5.8;51.1;102610;;;;
2021/04/25 06:45:07;;;;;;;5.5;4.2;;;;;;;6.0;50.9;102610;;;;
2021/04/25 06:47:07;;;;;;;5.5;4.2;;;;;;;6.1;50.7;102610;;;;
2021/04/25 06:49:07;;;;;;;5.5;4.2;;;;;;;5.9;50.9;102620;;;;
2021/04/25 06:51:07;;;;;;;5.5;4.2;;;;;;;5.8;50.9;102620;;;;
2021/04/25 06:53:07;;;;;;;5.5;4.2;;;;;;;5.9;51.0;102620;;;;
2021/04/25 06:57:07;;;;;;;5.5;4.2;;;;;;;6.1;50.6;102620;;;;
2021/04/25 06:59:07;;;;;;;5.5;4.2;;;;;;;6.3;50.3;102630;;;;
2021/04/25 07:03:07;;;;;;;5.5;4.2;;;;;;;6.1;50.4;102630;;;;
2021/04/25 07:05:07;;;;;;;7.4;4.4;;;;;;;6.0;50.4;102630;;;;
2021/04/25 07:07:07;;;;;;;7.4;4.4;;;;;;;6.1;50.5;102630;;;;
2021/04/25 07:11:07;;;;;;;7.4;4.4;;;;;;;6.2;50.1;102630;;;;
2021/04/25 07:13:07;;;;;;;7.4;4.4;;;;;;;6.3;50.3;102630;;;;
2021/04/25 07:15:07;;;;;;;7.4;4.4;;;;;;;6.4;49.7;102630;;;;
2021/04/25 07:19:07;;;;;;;7.4;4.4;;;;;;;6.6;49.3;102630;;;;
2021/04/25 07:21:07;;;;;;;7.4;4.4;;;;;;;6.4;49.5;102630;;;;
2021/04/25 07:25:07;;;;;;;6.4;4.8;;;;;;;6.7;49.1;102620;;;;
2021/04/25 07:27:07;;;;;;;6.4;4.8;;;;;;;6.6;49.8;102620;;;;
2021/04/25 07:29:07;;;;;;;6.4;4.8;;;;;;;6.8;49.7;102620;;;;
2021/04/25 07:33:07;;;;;;;6.4;4.8;;;;;;;6.7;49.3;102620;;;;
2021/04/25 07:35:07;;;;;;;6.4;4.8;;;;;;;6.8;49.0;102620;;;;
2021/04/25 07:37:07;;;;;;;6.4;4.8;;;;;;;7.0;49.1;102620;;;;
2021/04/25 07:39:07;;;;;;;6.4;4.8;;;;;;;6.9;48.8;102620;;;;
2021/04/25 07:41:07;;;;;;;6.4;4.8;;;;;;;6.6;49.1;102620;;;;
2021/04/25 07:43:07;;;;;;;6.4;4.8;;;;;;;6.7;49.0;102620;;;;
2021/04/25 07:45:07;;;;;;;8.1;3.9;;;;;;;6.9;49.2;102620;;;;
2021/04/25 07:47:07;;;;;;;8.1;3.9;;;;;;;7.1;48.5;102620;;;;
2021/04/25 07:49:07;;;;;;;8.1;3.9;;;;;;;6.9;48.4;102620;;;;
2021/04/25 07:51:07;;;;;;;8.1;3.9;;;;;;;7.1;48.7;102630;;;;
2021/04/25 07:53:07;;;;;;;8.1;3.9;;;;;;;7.0;48.2;102630;;;;
2021/04/25 07:55:07;;;;;;;8.1;3.9;;;;;;;7.3;48.3;102620;;;;
2021/04/25 07:57:07;;;;;;;8.1;3.9;;;;;;;7.2;48.2;102630;;;;
2021/04/25 08:01:07;;;;;;;8.1;3.9;;;;;;;7.1;48.2;102630;;;;
2021/04/25 08:03:07;;;;;;;8.1;3.9;;;;;;;7.3;48.4;102630;;;;
2021/04/25 08:05:07;;;;;;;7.7;4.2;;;;;;;7.7;47.7;102630;;;;
2021/04/25 08:09:07;;;;;;;7.7;4.2;;;;;;;7.6;47.8;102630;;;;
2021/04/25 08:13:07;;;;;;;7.7;4.2;;;;;;;7.9;47.7;102610;;;;
2021/04/25 08:17:07;;;;;;;7.7;4.2;;;;;;;7.8;47.0;102610;;;;
2021/04/25 08:19:08;;;;;;;7.7;4.2;;;;;;;7.9;47.2;102620;;;;
2021/04/25 08:21:07;;;;;;;7.7;4.2;;;;;;;8.1;46.7;102620;;;;
2021/04/25 08:23:07;;;;;;;7.7;4.2;;;;;;;8.3;46.9;102610;;;;
2021/04/25 08:25:07;;;;;;;4.7;3.4;;;;;;;8.5;46.6;102610;;;;
2021/04/25 08:27:07;;;;;;;4.7;3.4;;;;;;;8.6;46.5;102610;;;;
2021/04/25 08:29:07;;;;;;;4.7;3.4;;;;;;;8.8;45.9;102610;;;;
2021/04/25 08:31:07;;;;;;;4.7;3.4;;;;;;;8.5;45.8;102610;;;;
2021/04/25 08:33:07;;;;;;;4.7;3.4;;;;;;;8.4;46.0;102620;;;;
2021/04/25 08:35:07;;;;;;;4.7;3.4;;;;;;;8.5;46.3;102610;;;;
2021/04/25 08:37:07;;;;;;;4.7;3.4;;;;;;;8.4;46.2;102610;;;;
2021/04/25 08:39:12;;;;;;;4.7;3.4;;;;;;;8.5;46.0;102610;;;;
2021/04/25 08:41:08;;;;;;;4.7;3.4;;;;;;;8.6;45.4;102610;;;;
2021/04/25 08:43:07;;;;;;;4.7;3.4;;;;;;;8.7;45.7;102610;;;;
2021/04/25 08:47:12;;;;;;;6.8;3.3;;;;;;;8.2;46.1;102620;;;;
2021/04/25 08:49:07;;;;;;;6.8;3.3;;;;;;;8.4;45.1;102620;;;;
2021/04/25 08:53:07;;;;;;;6.8;3.3;;;;;;;8.5;45.8;102620;;;;
2021/04/25 08:55:07;;;;;;;6.8;3.3;;;;;;;8.8;44.9;102610;;;;
2021/04/25 08:57:07;;;;;;;6.8;3.3;;;;;;;8.6;45.0;102610;;;;
2021/04/25 08:59:07;;;;;;;6.8;3.3;;;;;;;8.8;45.8;102610;;;;
2021/04/25 09:01:07;;;;;;;6.8;3.3;;;;;;;9.1;45.3;102610;;;;
2021/04/25 09:03:07;;;;;;;6.8;3.3;;;;;;;9.2;44.5;102610;;;;
2021/04/25 09:05:07;;;;;;;8.4;3.3;;;;;;;8.9;44.9;102610;;;;
2021/04/25 09:07:09;;;;;;;8.4;3.3;;;;;;;8.8;44.3;102600;;;;
2021/04/25 09:09:08;;;;;;;8.4;3.3;;;;;;;8.5;45.4;102600;;;;
2021/04/25 09:11:07;;;;;;;8.4;3.3;;;;;;;8.4;45.3;102610;;;;
2021/04/25 09:13:07;;;;;;;8.4;3.3;;;;;;;8.9;45.2;102600;;;;
2021/04/25 09:15:07;;;;;;;8.4;3.3;;;;;;;9.2;45.1;102610;;;;
2021/04/25 09:17:07;;;;;;;8.4;3.3;;;;;;;9.4;44.5;102600;;;;
2021/04/25 09:19:07;;;;;;;8.4;3.3;;;;;;;9.7;44.1;102600;;;;
2021/04/25 09:21:07;;;;;;;8.4;3.3;;;;;;;9.9;44.5;102600;;;;
2021/04/25 09:23:07;;;;;;;8.4;3.3;;;;;;;9.8;43.4;102610;;;;
2021/04/25 09:25:07;;;;;;;7.1;3.0;;;;;;;9.4;44.1;102610;;;;
2021/04/25 09:27:07;;;;;;;7.1;3.0;;;;;;;9.8;43.9;102600;;;;
2021/04/25 09:31:07;;;;;;;7.1;3.0;;;;;;;10.1;43.0;102590;;;;
2021/04/25 09:33:09;;;;;;;7.1;3.0;;;;;;;10.0;44.0;102600;;;;
2021/04/25 09:35:07;;;;;;;7.1;3.0;;;;;;;10.2;43.8;102600;;;;
2021/04/25 09:37:07;;;;;;;7.1;3.0;;;;;;;10.3;43.3;102600;;;;
2021/04/25 09:39:07;;;;;;;7.1;3.0;;;;;;;10.2;43.4;102600;;;;
2021/04/25 09:41:07;;;;;;;7.1;3.0;;;;;;;10.6;43.5;102590;;;;
2021/04/25 09:43:07;;;;;;;7.1;3.0;;;;;;;10.7;43.4;102590;;;;
2021/04/25 09:45:07;;;;;;;7.4;2.9;;;;;;;10.4;42.3;102580;;;;
2021/04/25 09:47:07;;;;;;;7.4;2.9;;;;;;;10.2;42.0;102590;;;;
2021/04/25 09:49:07;;;;;;;7.4;2.9;;;;;;;10.3;42.5;102590;;;;
2021/04/25 09:53:07;;;;;;;7.4;2.9;;;;;;;10.2;42.8;102590;;;;
2021/04/25 09:55:07;;;;;;;7.4;2.9;;;;;;;10.1;42.9;102590;;;;
2021/04/25 09:57:07;;;;;;;7.4;2.9;;;;;;;9.9;43.1;102590;;;;
2021/04/25 09:59:07;;;;;;;7.4;2.9;;;;;;;9.8;43.3;102590;;;;
2021/04/25 10:01:07;;;;;;;7.4;2.9;;;;;;;9.6;43.7;102600;;;;
2021/04/25 10:07:07;;;;;;;5.3;2.7;;;;;;;9.8;43.7;102580;;;;
2021/04/25 10:09:07;;;;;;;5.3;2.7;;;;;;;9.9;44.6;102580;;;;
2021/04/25 10:13:07;;;;;;;5.3;2.7;;;;;;;10.3;45.5;102590;;;;
2021/04/25 10:15:12;;;;;;;5.3;2.7;;;;;;;10.4;43.7;102590;;;;
2021/04/25 10:17:07;;;;;;;5.3;2.7;;;;;;;10.3;44.8;102600;;;;
2021/04/25 10:19:08;;;;;;;5.3;2.7;;;;;;;10.0;43.1;102600;;;;
2021/04/25 10:21:07;;;;;;;5.3;2.7;;;;;;;10.3;43.0;102590;;;;
2021/04/25 10:23:08;;;;;;;5.3;2.7;;;;;;;10.6;43.4;102590;;;;
2021/04/25 10:25:07;;;;;;;6.1;3.1;;;;;;;10.9;44.4;102580;;;;
2021/04/25 10:27:07;;;;;;;6.1;3.1;;;;;;;11.2;43.0;102580;;;;
2021/04/25 10:29:07;;;;;;;6.1;3.1;;;;;;;11.4;43.4;102580;;;;
2021/04/25 10:31:07;;;;;;;6.1;3.1;;;;;;;11.5;43.5;102580;;;;
2021/04/25 10:33:07;;;;;;;6.1;3.1;;;;;;;11.4;44.0;102570;;;;
2021/04/25 10:35:07;;;;;;;6.1;3.1;;;;;;;11.5;43.4;102570;;;;
2021/04/25 10:39:07;;;;;;;6.1;3.1;;;;;;;11.1;41.9;102570;;;;
2021/04/25 10:41:07;;;;;;;6.1;3.1;;;;;;;10.8;41.3;102560;;;;
2021/04/25 10:47:07;;;;;;;6.3;2.8;;;;;;;10.9;41.2;102550;;;;
2021/04/25 10:49:17;;;;;;;6.3;2.8;;;;;;;11.2;40.8;102550;;;;
2021/04/25 10:55:07;;;;;;;6.3;2.8;;;;;;;11.4;42.1;102550;;;;
2021/04/25 10:59:07;;;;;;;6.3;2.8;;;;;;;11.5;41.3;102540;;;;
2021/04/25 11:01:07;;;;;;;6.3;2.8;;;;;;;11.1;43.3;102540;;;;
2021/04/25 11:03:07;;;;;;;6.3;2.8;;;;;;;11.6;43.0;102540;;;;
2021/04/25 11:05:07;;;;;;;6.3;2.8;;;;;;;11.5;40.4;102540;;;;
2021/04/25 11:09:07;;;;;;;6.3;2.8;;;;;;;11.4;42.8;102540;;;;
2021/04/25 11:11:10;;;;;;;6.3;2.8;;;;;;;11.6;42.1;102540;;;;
2021/04/25 11:13:07;;;;;;;6.3;2.8;;;;;;;11.3;44.2;102540;;;;
2021/04/25 11:15:07;;;;;;;6.3;2.8;;;;;;;11.6;41.8;102540;;;;
2021/04/25 11:17:07;;;;;;;6.3;2.8;;;;;;;11.4;43.2;102530;;;;
2021/04/25 11:21:07;;;;;;;6.3;2.8;;;;;;;11.5;41.7;102520;;;;
2021/04/25 11:23:07;;;;;;;6.3;2.8;;;;;;;11.4;41.0;102520;;;;
2021/04/25 11:27:07;;;;;;;5.6;2.9;;;;;;;11.0;42.1;102520;;;;
2021/04/25 11:29:07;;;;;;;5.6;2.9;;;;;;;10.9;41.0;102520;;;;
2021/04/25 11:31:07;;;;;;;5.6;2.9;;;;;;;11.0;40.6;102530;;;;
2021/04/25 11:33:07;;;;;;;5.6;2.9;;;;;;;11.1;40.9;102530;;;;
2021/04/25 11:35:09;;;;;;;5.6;2.9;;;;;;;10.9;41.8;102530;;;;
2021/04/25 11:37:07;;;;;;;5.6;2.9;;;;;;;11.1;40.8;102530;;;;
2021/04/25 11:39:07;;;;;;;5.6;2.9;;;;;;;11.3;41.3;102520;;;;
2021/04/25 11:41:07;;;;;;;5.6;2.9;;;;;;;11.4;40.9;102530;;;;
2021/04/25 11:43:07;;;;;;;5.6;2.9;;;;;;;11.1;43.6;102530;;;;
2021/04/25 11:45:07;;;;;;;5.3;2.9;;;;;;;11.5;43.4;102530;;;;
2021/04/25 11:47:07;;;;;;;5.3;2.9;;;;;;;11.6;41.1;102520;;;;
2021/04/25 11:49:07;;;;;;;5.3;2.9;;;;;;;12.0;41.5;102520;;;;
2021/04/25 11:53:07;;;;;;;5.3;2.9;;;;;;;11.8;40.1;102520;;;;
2021/04/25 11:55:07;;;;;;;5.3;2.9;;;;;;;11.7;39.9;102520;;;;
2021/04/25 11:57:07;;;;;;;5.3;2.9;;;;;;;11.6;41.0;102510;;;;
2021/04/25 11:59:07;;;;;;;5.3;2.9;;;;;;;11.9;40.3;102510;;;;
2021/04/25 12:01:07;;;;;;;5.3;2.9;;;;;;;12.0;39.5;102510;;;;
2021/04/25 12:03:07;;;;;;;5.3;2.9;;;;;;;11.7;39.2;102520;;;;
2021/04/25 12:05:07;;;;;;;9.1;5.8;;;;;;;11.8;41.6;102510;;;;
2021/04/25 12:07:07;;;;;;;9.1;5.8;;;;;;;12.0;39.6;102510;;;;
2021/04/25 12:09:07;;;;;;;9.1;5.8;;;;;;;12.1;40.4;102510;;;;
2021/04/25 12:11:07;;;;;;;9.1;5.8;;;;;;;12.2;43.5;102510;;;;
2021/04/25 12:15:07;;;;;;;9.1;5.8;;;;;;;12.0;40.5;102520;;;;
2021/04/25 12:19:07;;;;;;;9.1;5.8;;;;;;;12.5;43.2;102510;;;;
2021/04/25 12:21:07;;;;;;;9.1;5.8;;;;;;;12.3;40.1;102510;;;;
2021/04/25 12:25:07;;;;;;;6.2;2.7;;;;;;;12.1;38.7;102520;;;;
2021/04/25 12:27:07;;;;;;;6.2;2.7;;;;;;;12.2;39.9;102510;;;;
2021/04/25 12:29:07;;;;;;;6.2;2.7;;;;;;;12.6;42.3;102520;;;;
2021/04/25 12:31:07;;;;;;;6.2;2.7;;;;;;;12.9;39.7;102520;;;;
2021/04/25 12:33:07;;;;;;;6.2;2.7;;;;;;;12.5;39.5;102520;;;;
2021/04/25 12:35:07;;;;;;;6.2;2.7;;;;;;;12.2;39.1;102520;;;;
2021/04/25 12:37:07;;;;;;;6.2;2.7;;;;;;;12.4;42.2;102520;;;;
2021/04/25 12:39:07;;;;;;;6.2;2.7;;;;;;;12.2;40.9;102520;;;;
2021/04/25 12:41:07;;;;;;;6.2;2.7;;;;;;;12.3;39.3;102520;;;;
2021/04/25 12:43:07;;;;;;;6.2;2.7;;;;;;;12.6;42.0;102510;;;;
2021/04/25 12:45:07;;;;;;;6.8;2.8;;;;;;;12.8;39.3;102510;;;;
2021/04/25 12:47:17;;;;;;;6.8;2.8;;;;;;;13.0;41.0;102500;;;;
2021/04/25 12:49:08;;;;;;;6.8;2.8;;;;;;;13.1;38.9;102510;;;;
2021/04/25 12:51:07;;;;;;;6.8;2.8;;;;;;;13.0;38.2;102500;;;;
2021/04/25 12:53:07;;;;;;;6.8;2.8;;;;;;;12.8;39.5;102510;;;;
2021/04/25 12:55:07;;;;;;;6.8;2.8;;;;;;;12.6;41.7;102510;;;;
2021/04/25 12:57:07;;;;;;;6.8;2.8;;;;;;;12.8;40.7;102510;;;;
2021/04/25 12:59:07;;;;;;;6.8;2.8;;;;;;;13.1;42.8;102500;;;;
2021/04/25 13:01:07;;;;;;;6.8;2.8;;;;;;;13.6;43.6;102500;;;;
2021/04/25 13:03:10;;;;;;;5.5;3.0;;;;;;;13.8;42.0;102500;;;;
2021/04/25 13:05:09;;;;;;;5.5;3.0;;;;;;;13.4;38.0;102500;;;;
2021/04/25 13:07:07;;;;;;;5.5;3.0;;;;;;;13.1;37.6;102500;;;;
2021/04/25 13:11:07;;;;;;;5.5;3.0;;;;;;;13.5;39.5;102500;;;;
2021/04/25 13:13:07;;;;;;;5.5;3.0;;;;;;;13.6;41.5;102500;;;;
2021/04/25 13:15:08;;;;;;;5.5;3.0;;;;;;;13.8;40.8;102500;;;;
2021/04/25 13:17:07;;;;;;;5.5;3.0;;;;;;;13.9;38.7;102490;;;;
2021/04/25 13:19:07;;;;;;;5.5;3.0;;;;;;;13.8;36.9;102490;;;;
2021/04/25 13:23:07;;;;;;;5.1;2.5;;;;;;;13.9;41.3;102480;;;;
2021/04/25 13:25:07;;;;;;;5.1;2.5;;;;;;;13.6;38.5;102480;;;;
2021/04/25 13:27:07;;;;;;;5.1;2.5;;;;;;;14.0;39.3;102470;;;;
2021/04/25 13:29:07;;;;;;;5.1;2.5;;;;;;;13.7;38.5;102470;;;;
2021/04/25 13:31:10;;;;;;;5.1;2.5;;;;;;;13.6;38.4;102480;;;;
2021/04/25 13:33:07;;;;;;;5.1;2.5;;;;;;;13.5;39.7;102480;;;;
2021/04/25 13:37:07;;;;;;;5.1;2.5;;;;;;;13.8;40.4;102470;;;;
2021/04/25 13:41:12;;;;;;;5.1;2.5;;;;;;;13.9;36.8;102470;;;;
2021/04/25 13:43:09;;;;;;;6.5;2.9;;;;;;;13.7;38.5;102470;;;;
2021/04/25 13:45:08;;;;;;;6.5;2.9;;;;;;;13.6;37.5;102470;;;;
2021/04/25 13:47:07;;;;;;;6.5;2.9;;;;;;;13.5;40.5;102460;;;;
2021/04/25 13:49:07;;;;;;;6.5;2.9;;;;;;;13.6;39.4;102460;;;;
2021/04/25 13:51:07;;;;;;;6.5;2.9;;;;;;;13.4;37.1;102460;;;;
2021/04/25 13:53:07;;;;;;;6.5;2.9;;;;;;;13.8;39.4;102460;;;;
2021/04/25 13:55:08;;;;;;;6.5;2.9;;;;;;;14.0;42.3;102450;;;;
2021/04/25 13:57:07;;;;;;;6.5;2.9;;;;;;;13.9;38.5;102450;;;;
2021/04/25 13:59:09;;;;;;;6.5;2.9;;;;;;;14.0;39.7;102440;;;;
2021/04/25 14:03:08;;;;;;;5.7;2.8;;;;;;;14.2;42.0;102440;;;;
2021/04/25 14:07:07;;;;;;;5.7;2.8;;;;;;;14.1;39.5;102440;;;;
2021/04/25 14:09:07;;;;;;;5.7;2.8;;;;;;;14.0;36.9;102440;;;;
2021/04/25 14:11:09;;;;;;;5.7;2.8;;;;;;;13.7;41.0;102440;;;;
2021/04/25 14:15:07;;;;;;;5.7;2.8;;;;;;;13.6;37.4;102430;;;;
2021/04/25 14:17:07;;;;;;;5.7;2.8;;;;;;;13.7;38.4;102430;;;;
2021/04/25 14:19:07;;;;;;;5.7;2.8;;;;;;;13.9;37.8;102430;;;;
2021/04/25 14:21:08;;;;;;;5.7;2.8;;;;;;;14.1;36.9;102430;;;;
2021/04/25 14:23:07;;;;;;;4.8;3.0;;;;;;;14.0;38.5;102430;;;;
2021/04/25 14:25:07;;;;;;;4.8;3.0;;;;;;;14.3;41.7;102420;;;;
2021/04/25 14:29:07;;;;;;;4.8;3.0;;;;;;;14.6;41.1;102420;;;;
2021/04/25 14:31:07;;;;;;;4.8;3.0;;;;;;;14.8;41.8;102410;;;;
2021/04/25 14:33:07;;;;;;;4.8;3.0;;;;;;;14.9;38.8;102410;;;;
2021/04/25 14:35:07;;;;;;;4.8;3.0;;;;;;;14.7;40.7;102400;;;;
2021/04/25 14:37:07;;;;;;;4.8;3.0;;;;;;;14.5;38.2;102410;;;;
2021/04/25 14:39:07;;;;;;;4.8;3.0;;;;;;;14.4;38.7;102410;;;;
2021/04/25 14:41:07;;;;;;;4.8;3.0;;;;;;;14.1;36.9;102400;;;;
2021/04/25 14:43:07;;;;;;;13.5;4.8;;;;;;;14.5;39.9;102390;;;;
2021/04/25 14:45:07;;;;;;;13.5;4.8;;;;;;;14.3;37.5;102400;;;;
2021/04/25 14:47:07;;;;;;;13.5;4.8;;;;;;;14.6;36.2;102390;;;;
2021/04/25 14:49:07;;;;;;;13.5;4.8;;;;;;;14.7;36.3;102390;;;;
2021/04/25 14:51:11;;;;;;;13.5;4.8;;;;;;;14.6;38.4;102390;;;;
2021/04/25 14:53:07;;;;;;;13.5;4.8;;;;;;;14.9;37.6;102400;;;;
2021/04/25 14:55:07;;;;;;;13.5;4.8;;;;;;;15.2;39.8;102390;;;;
2021/04/25 14:59:07;;;;;;;13.5;4.8;;;;;;;15.0;35.8;102390;;;;
2021/04/25 15:01:07;;;;;;;13.5;4.8;;;;;;;14.4;36.4;102390;;;;
2021/04/25 15:03:07;;;;;;;4.9;2.7;;;;;;;14.9;38.0;102380;;;;
2021/04/25 15:05:07;;;;;;;4.9;2.7;;;;;;;15.2;35.4;102380;;;;
2021/04/25 15:07:07;;;;;;;4.9;2.7;;;;;;;14.9;36.6;102370;;;;
2021/04/25 15:09:07;;;;;;;4.9;2.7;;;;;;;15.2;35.9;102370;;;;
2021/04/25 15:11:07;;;;;;;4.9;2.7;;;;;;;15.7;38.7;102380;;;;
2021/04/25 15:13:08;;;;;;;4.9;2.7;;;;;;;15.8;35.9;102370;;;;
2021/04/25 15:15:10;;;;;;;4.9;2.7;;;;;;;15.4;33.7;102370;;;;
2021/04/25 15:17:09;;;;;;;4.9;2.7;;;;;;;14.8;34.3;102370;;;;
2021/04/25 15:19:07;;;;;;;4.9;2.7;;;;;;;14.7;34.2;102360;;;;
2021/04/25 15:21:07;;;;;;;4.9;2.7;;;;;;;15.2;35.7;102370;;;;
2021/04/25 15:25:07;;;;;;;5.2;2.7;;;;;;;15.3;35.5;102360;;;;
2021/04/25 15:27:08;;;;;;;5.2;2.7;;;;;;;15.6;37.5;102360;;;;
2021/04/25 15:29:17;;;;;;;5.2;2.7;;;;;;;16.1;38.1;102350;;;;
2021/04/25 15:31:07;;;;;;;5.2;2.7;;;;;;;16.7;37.2;102340;;;;
2021/04/25 15:33:07;;;;;;;5.2;2.7;;;;;;;16.9;35.5;102340;;;;
2021/04/25 15:35:07;;;;;;;5.2;2.7;;;;;;;16.6;32.4;102350;;;;
2021/04/25 15:39:09;;;;;;;5.2;2.7;;;;;;;16.5;33.7;102340;;;;
2021/04/25 15:43:09;;;;;;;4.2;2.4;;;;;;;16.9;33.1;102330;;;;
2021/04/25 15:45:07;;;;;;;4.2;2.4;;;;;;;16.5;33.9;102330;;;;
2021/04/25 15:47:08;;;;;;;4.2;2.4;;;;;;;16.8;34.0;102330;;;;
2021/04/25 15:51:10;;;;;;;4.2;2.4;;;;;;;17.5;35.5;102330;;;;
2021/04/25 15:53:07;;;;;;;4.2;2.4;;;;;;;17.4;34.0;102330;;;;
2021/04/25 15:55:07;;;;;;;4.2;2.4;;;;;;;17.7;34.5;102330;;;;
2021/04/25 15:57:07;;;;;;;4.2;2.4;;;;;;;18.2;35.4;102330;;;;
2021/04/25 15:59:07;;;;;;;4.2;2.4;;;;;;;18.4;33.6;102330;;;;
2021/04/25 16:01:07;;;;;;;4.2;2.4;;;;;;;17.6;32.9;102330;;;;
2021/04/25 16:03:07;;;;;;;5.0;2.4;;;;;;;17.5;32.4;102320;;;;
2021/04/25 16:05:07;;;;;;;5.0;2.4;;;;;;;17.8;33.3;102330;;;;
2021/04/25 16:07:07;;;;;;;5.0;2.4;;;;;;;17.3;33.5;102330;;;;
2021/04/25 16:09:07;;;;;;;5.0;2.4;;;;;;;17.4;34.6;102330;;;;
2021/04/25 16:11:07;;;;;;;5.0;2.4;;;;;;;17.6;33.9;102330;;;;
2021/04/25 16:15:07;;;;;;;5.0;2.4;;;;;;;17.5;36.2;102320;;;;
2021/04/25 16:17:07;;;;;;;5.0;2.4;;;;;;;18.2;34.7;102320;;;;
2021/04/25 16:19:07;;;;;;;5.0;2.4;;;;;;;17.7;31.7;102330;;;;
2021/04/25 16:21:07;;;;;;;5.0;2.4;;;;;;;17.1;33.8;102330;;;;
2021/04/25 16:23:07;;;;;;;4.5;2.5;;;;;;;17.8;30.2;102320;;;;
2021/04/25 16:25:09;;;;;;;4.5;2.5;;;;;;;17.9;30.5;102320;;;;
2021/04/25 16:27:07;;;;;;;4.5;2.5;;;;;;;17.4;29.0;102320;;;;
2021/04/25 16:29:07;;;;;;;4.5;2.5;;;;;;;16.2;33.7;102320;;;;
2021/04/25 16:33:07;;;;;;;4.5;2.5;;;;;;;16.8;31.4;102310;;;;
2021/04/25 16:35:07;;;;;;;4.5;2.5;;;;;;;17.1;34.0;102310;;;;
2021/04/25 16:37:07;;;;;;;4.5;2.5;;;;;;;17.2;32.9;102310;;;;
2021/04/25 16:39:08;;;;;;;4.5;2.5;;;;;;;17.5;33.7;102310;;;;
2021/04/25 16:43:08;;;;;;;5.2;2.7;;;;;;;17.3;29.3;102310;;;;
2021/04/25 16:45:07;;;;;;;5.2;2.7;;;;;;;17.7;30.5;102310;;;;
2021/04/25 16:47:07;;;;;;;5.2;2.7;;;;;;;17.9;29.9;102310;;;;
2021/04/25 16:49:07;;;;;;;5.2;2.7;;;;;;;17.3;31.8;102300;;;;
2021/04/25 16:51:07;;;;;;;5.2;2.7;;;;;;;16.8;29.9;102300;;;;
2021/04/25 16:53:07;;;;;;;5.2;2.7;;;;;;;16.9;31.9;102300;;;;
2021/04/25 16:55:07;;;;;;;5.2;2.7;;;;;;;16.6;31.4;102290;;;;
2021/04/25 16:57:07;;;;;;;5.2;2.7;;;;;;;16.8;31.9;102310;;;;
2021/04/25 16:59:07;;;;;;;5.2;2.7;;;;;;;17.1;30.4;102300;;;;
2021/04/25 17:03:07;;;;;;;4.2;2.3;;;;;;;17.0;30.5;102310;;;;
2021/04/25 17:05:07;;;;;;;4.2;2.3;;;;;;;16.5;30.8;102300;;;;
2021/04/25 17:09:07;;;;;;;4.2;2.3;;;;;;;16.9;31.0;102300;;;;
2021/04/25 17:11:11;;;;;;;4.2;2.3;;;;;;;16.5;32.4;102290;;;;
2021/04/25 17:13:07;;;;;;;4.2;2.3;;;;;;;16.3;30.4;102290;;;;
2021/04/25 17:15:07;;;;;;;4.2;2.3;;;;;;;16.2;31.1;102290;;;;
2021/04/25 17:17:07;;;;;;;4.2;2.3;;;;;;;15.9;31.3;102290;;;;
2021/04/25 17:19:07;;;;;;;4.2;2.3;;;;;;;16.2;31.4;102290;;;;
2021/04/25 17:21:07;;;;;;;4.2;2.3;;;;;;;15.9;32.4;102290;;;;
2021/04/25 17:23:07;;;;;;;6.5;2.7;;;;;;;15.6;31.6;102300;;;;
2021/04/25 17:25:08;;;;;;;6.5;2.7;;;;;;;14.9;33.0;102300;;;;
2021/04/25 17:27:07;;;;;;;6.5;2.7;;;;;;;14.6;34.9;102300;;;;
2021/04/25 17:29:07;;;;;;;6.5;2.7;;;;;;;15.0;34.1;102300;;;;
2021/04/25 17:31:08;;;;;;;6.5;2.7;;;;;;;14.5;33.6;102300;;;;
2021/04/25 17:33:07;;;;;;;6.5;2.7;;;;;;;14.0;34.5;102300;;;;